Time;durP1;ratioP1;P1;durP2;ratioP2;P2;SDS_P1;SDS_P2;PMS_P1;PMS_P2;Temp;Humidity;BMP_temperature;BMP_pressure;BME280_temperature;BME280_humidity;BME280_pressure;Samples;Min_cycle;Max_cycle;Signal;HPM_P1;HPM_P2
2021/11/18 00:02:24;;;;;;;16.85;13.82;;;6.70;99.90;;;;;;5054786;28;20033;-71
2021/11/18 00:04:54;;;;;;;20.13;14.40;;;6.70;99.90;;;;;;5053215;28;20044;-72
2021/11/18 00:07:21;;;;;;;16.05;14.35;;;6.80;99.90;;;;;;5055234;28;20477;-72
2021/11/18 00:09:47;;;;;;;21.98;14.65;;;6.70;99.90;;;;;;5054511;28;20036;-72
2021/11/18 00:12:13;;;;;;;15.88;14.38;;;6.70;99.90;;;;;;5068287;28;20381;-72
2021/11/18 00:14:40;;;;;;;16.70;14.90;;;6.70;99.90;;;;;;5072521;28;20035;-71
2021/11/18 00:17:06;;;;;;;15.02;13.50;;;6.70;99.90;;;;;;5055906;28;20036;-70
2021/11/18 00:19:32;;;;;;;15.20;13.70;;;6.70;99.90;;;;;;5065815;28;20044;-70
2021/11/18 00:21:58;;;;;;;16.98;15.10;;;6.70;99.90;;;;;;5056548;28;20029;-71
2021/11/18 00:24:25;;;;;;;17.30;15.48;;;6.60;99.90;;;;;;5054188;28;20029;-71
2021/11/18 00:26:54;;;;;;;15.50;13.77;;;6.60;99.90;;;;;;5054210;28;20043;-71
2021/11/18 00:29:22;;;;;;;16.90;13.68;;;6.60;99.90;;;;;;5055977;28;20041;-71
2021/11/18 00:31:48;;;;;;;15.60;14.00;;;6.60;99.90;;;;;;5053124;28;20379;-71
2021/11/18 00:34:15;;;;;;;18.33;14.80;;;6.50;99.90;;;;;;5022306;28;20375;-71
2021/11/18 00:36:42;;;;;;;15.20;13.70;;;6.50;99.90;;;;;;5070754;28;20048;-74
2021/11/18 00:39:08;;;;;;;14.82;13.45;;;6.50;99.90;;;;;;5053892;28;20481;-71
2021/11/18 00:41:35;;;;;;;18.13;14.10;;;6.50;99.90;;;;;;5053339;28;20025;-71
2021/11/18 00:44:02;;;;;;;18.45;14.55;;;6.50;99.90;;;;;;5053919;28;20044;-71
2021/11/18 00:46:32;;;;;;;21.67;15.77;;;6.50;99.90;;;;;;5053849;28;20041;-71
2021/11/18 00:48:58;;;;;;;15.95;14.45;;;6.50;99.90;;;;;;5035387;28;20040;-71
2021/11/18 00:51:24;;;;;;;20.85;16.27;;;6.50;99.90;;;;;;5053804;28;20032;-71
2021/11/18 00:53:58;;;;;;;19.15;16.73;;;6.50;99.90;;;;;;5035725;28;20397;-71
2021/11/18 00:56:26;;;;;;;16.92;15.20;;;6.40;99.90;;;;;;5035936;28;20041;-71
2021/11/18 00:58:54;;;;;;;16.63;14.90;;;6.40;99.90;;;;;;5034906;28;20049;-70
2021/11/18 01:01:24;;;;;;;18.95;15.55;;;6.40;99.90;;;;;;5053996;28;20474;-71
2021/11/18 01:03:52;;;;;;;19.35;15.60;;;6.40;99.90;;;;;;5035636;28;20052;-70
2021/11/18 01:06:18;;;;;;;16.42;14.80;;;6.40;99.90;;;;;;5054095;28;20036;-71
2021/11/18 01:08:44;;;;;;;17.85;14.80;;;6.40;99.90;;;;;;5055886;28;20035;-71
2021/11/18 01:11:18;;;;;;;19.67;15.75;;;6.40;99.90;;;;;;5069909;28;20039;-72
2021/11/18 01:13:46;;;;;;;18.20;16.20;;;6.40;99.90;;;;;;5049881;28;20122;-71
2021/11/18 01:16:16;;;;;;;17.60;15.90;;;6.40;99.90;;;;;;5053772;28;20473;-71
2021/11/18 01:18:42;;;;;;;15.87;12.67;;;6.40;99.90;;;;;;5041426;28;20041;-71
2021/11/18 01:21:10;;;;;;;18.10;16.25;;;6.40;99.90;;;;;;5035843;28;20037;-71
2021/11/18 01:23:41;;;;;;;18.95;15.20;;;6.40;99.90;;;;;;5034631;28;20037;-71
2021/11/18 01:26:11;;;;;;;18.77;15.20;;;6.40;99.90;;;;;;5047132;28;20382;-71
2021/11/18 01:28:38;;;;;;;20.70;15.63;;;6.40;99.90;;;;;;5057967;28;20049;-71
2021/11/18 01:31:05;;;;;;;22.52;15.65;;;6.30;99.90;;;;;;5042884;28;20413;-71
2021/11/18 01:33:33;;;;;;;17.38;14.98;;;6.40;99.90;;;;;;5035920;28;20040;-71
2021/11/18 01:36:01;;;;;;;19.55;15.98;;;6.40;99.90;;;;;;5052042;28;20049;-71
2021/11/18 01:38:31;;;;;;;20.67;16.58;;;6.40;99.90;;;;;;5024785;28;20040;-71
2021/11/18 01:41:22;;;;;;;17.80;15.45;;;6.40;99.90;;;;;;5044223;28;20040;-73
2021/11/18 01:43:56;;;;;;;23.77;15.82;;;6.40;99.90;;;;;;5035102;28;20052;-72
2021/11/18 01:46:29;;;;;;;27.27;18.20;;;6.40;99.90;;;;;;5053196;28;20049;-71
2021/11/18 01:49:01;;;;;;;20.30;15.68;;;6.40;99.90;;;;;;5045496;28;20041;-70
2021/11/18 01:51:31;;;;;;;20.60;17.17;;;6.40;99.90;;;;;;5034543;28;20051;-70
2021/11/18 01:54:01;;;;;;;23.40;17.25;;;6.50;99.90;;;;;;5044368;28;20052;-70
2021/11/18 01:56:31;;;;;;;20.90;15.27;;;6.50;99.90;;;;;;5054059;28;20045;-70
2021/11/18 01:59:19;;;;;;;18.27;16.42;;;6.50;99.90;;;;;;5041824;28;20037;-71
2021/11/18 02:01:56;;;;;;;19.08;14.52;;;6.50;99.90;;;;;;5050507;28;20052;-72
2021/11/18 02:05:12;;;;;;;20.50;16.45;;;6.50;99.90;;;;;;4992879;28;20050;-71
2021/11/18 02:07:44;;;;;;;21.45;16.35;;;6.50;99.90;;;;;;5033457;28;20045;-71
2021/11/18 02:10:29;;;;;;;23.63;17.05;;;6.50;99.90;;;;;;5042626;28;20033;-70
2021/11/18 02:12:57;;;;;;;17.92;14.88;;;6.50;99.90;;;;;;5054794;28;20390;-70
2021/11/18 02:15:26;;;;;;;21.17;14.82;;;6.50;99.90;;;;;;5055142;28;20049;-70
2021/11/18 02:17:53;;;;;;;21.67;14.73;;;6.50;99.90;;;;;;5038283;28;20037;-70
2021/11/18 02:20:26;;;;;;;19.52;15.07;;;6.50;99.90;;;;;;5038636;28;20044;-71
2021/11/18 02:22:54;;;;;;;20.30;15.10;;;6.50;99.90;;;;;;5053890;28;20044;-74
2021/11/18 02:25:28;;;;;;;22.38;16.80;;;6.50;99.90;;;;;;5038186;28;20037;-71
2021/11/18 02:27:56;;;;;;;17.95;16.25;;;6.50;99.90;;;;;;5038865;28;20040;-71
2021/11/18 02:30:35;;;;;;;18.65;15.48;;;6.50;99.90;;;;;;5043042;28;20052;-71
2021/11/18 02:33:02;;;;;;;16.27;14.70;;;6.40;99.90;;;;;;5055281;28;20052;-71
2021/11/18 02:35:30;;;;;;;17.27;14.40;;;6.50;99.90;;;;;;5045308;28;20044;-71
2021/11/18 02:37:58;;;;;;;17.77;16.00;;;6.40;99.90;;;;;;5042989;28;20041;-71
2021/11/18 02:40:27;;;;;;;17.40;15.48;;;6.40;99.90;;;;;;5054446;28;20041;-71
2021/11/18 02:42:55;;;;;;;16.92;15.13;;;6.40;99.90;;;;;;5055176;28;20037;-71
2021/11/18 02:45:24;;;;;;;20.92;18.73;;;6.40;99.90;;;;;;5038065;28;20470;-70
2021/11/18 02:47:51;;;;;;;43.60;35.70;;;6.50;99.90;;;;;;5055698;28;20029;-71
2021/11/18 02:50:23;;;;;;;28.27;24.90;;;6.50;99.90;;;;;;5038695;28;20037;-72
2021/11/18 02:52:50;;;;;;;25.20;19.98;;;6.40;99.90;;;;;;5038234;28;20045;-71
2021/11/18 02:55:20;;;;;;;21.15;17.50;;;6.40;99.90;;;;;;5044821;28;20036;-70
2021/11/18 02:57:48;;;;;;;20.87;17.37;;;6.40;99.90;;;;;;5065180;28;20370;-71
2021/11/18 03:00:21;;;;;;;166.05;148.68;;;6.50;99.90;;;;;;5056077;28;20291;-71
2021/11/18 03:02:48;;;;;;;91.47;78.60;;;6.40;99.90;;;;;;5050397;28;20040;-71
2021/11/18 03:05:18;;;;;;;204.43;182.65;;;6.50;99.90;;;;;;5056648;28;20036;-72
2021/11/18 03:07:50;;;;;;;52.50;33.95;;;6.40;99.90;;;;;;5038348;28;20048;-77
2021/11/18 03:10:21;;;;;;;47.20;42.08;;;6.40;99.90;;;;;;5038370;28;20049;-71
2021/11/18 03:12:47;;;;;;;21.50;18.38;;;6.40;99.90;;;;;;5045207;28;20044;-72
2021/11/18 03:15:15;;;;;;;24.35;18.27;;;6.40;99.90;;;;;;5037828;28;20040;-72
2021/11/18 03:17:43;;;;;;;47.65;42.83;;;6.40;99.90;;;;;;5038806;28;20044;-70
2021/11/18 03:20:20;;;;;;;63.30;52.85;;;6.40;99.90;;;;;;4987148;28;20041;-70
2021/11/18 03:22:47;;;;;;;22.42;17.58;;;6.40;99.90;;;;;;5016684;28;20040;-71
2021/11/18 03:25:17;;;;;;;22.20;17.17;;;6.40;99.90;;;;;;5018664;28;20053;-71
2021/11/18 03:27:47;;;;;;;19.48;16.50;;;6.40;99.90;;;;;;5018723;28;20080;-71
2021/11/18 03:30:22;;;;;;;60.38;50.17;;;6.40;99.90;;;;;;5055403;28;20486;-71
2021/11/18 03:32:51;;;;;;;134.48;121.55;;;6.40;99.90;;;;;;5056200;28;20044;-71
2021/11/18 03:35:20;;;;;;;28.92;25.67;;;6.40;99.90;;;;;;5039614;28;20063;-71
2021/11/18 03:37:48;;;;;;;23.50;17.90;;;6.40;99.90;;;;;;5052914;28;20077;-71
2021/11/18 03:40:16;;;;;;;20.63;17.80;;;6.40;99.90;;;;;;5054544;28;20414;-70
2021/11/18 03:42:43;;;;;;;35.45;25.17;;;6.40;99.90;;;;;;5055309;28;20043;-72
2021/11/18 03:45:17;;;;;;;20.23;17.50;;;6.40;99.90;;;;;;5053459;28;20382;-71
2021/11/18 03:47:44;;;;;;;19.25;16.77;;;6.40;99.90;;;;;;5038167;28;20059;-71
2021/11/18 03:50:11;;;;;;;20.70;18.20;;;6.40;99.90;;;;;;5055141;28;20051;-71
2021/11/18 03:52:45;;;;;;;27.85;24.35;;;6.40;99.90;;;;;;5055761;28;20053;-71
2021/11/18 03:55:14;;;;;;;19.92;16.13;;;6.40;99.90;;;;;;5043717;28;20044;-71
2021/11/18 03:57:44;;;;;;;22.35;17.77;;;6.40;99.90;;;;;;5061197;28;20048;-71
2021/11/18 04:00:19;;;;;;;33.47;27.40;;;6.40;99.90;;;;;;5079628;28;20371;-74
2021/11/18 04:02:45;;;;;;;33.63;24.42;;;6.40;99.90;;;;;;5073549;28;20502;-71
2021/11/18 04:05:17;;;;;;;24.88;20.45;;;6.40;99.90;;;;;;5076622;28;20044;-71
2021/11/18 04:07:43;;;;;;;18.40;16.63;;;6.40;99.90;;;;;;5079828;28;20044;-71
2021/11/18 04:10:17;;;;;;;31.73;25.27;;;6.40;99.90;;;;;;5089205;28;20480;-71
2021/11/18 04:12:45;;;;;;;24.13;19.40;;;6.40;99.90;;;;;;5073198;28;20040;-71
2021/11/18 04:15:13;;;;;;;34.88;31.15;;;6.40;99.90;;;;;;5073356;28;20055;-71
2021/11/18 04:17:40;;;;;;;26.48;19.33;;;6.30;99.90;;;;;;5067747;28;20047;-70
2021/11/18 04:20:12;;;;;;;44.17;29.50;;;6.30;99.90;;;;;;5080244;28;20122;-70
2021/11/18 04:22:41;;;;;;;57.70;43.33;;;6.30;99.90;;;;;;5072414;28;20427;-70
2021/11/18 04:25:11;;;;;;;16.85;15.23;;;6.30;99.90;;;;;;5078163;28;20040;-71
2021/11/18 04:27:39;;;;;;;46.40;38.03;;;6.30;99.90;;;;;;5078766;28;20055;-70
2021/11/18 04:30:06;;;;;;;41.40;28.58;;;6.20;99.90;;;;;;5038735;28;20426;-71
2021/11/18 04:32:33;;;;;;;27.95;24.67;;;6.20;99.90;;;;;;5053710;28;20036;-70
2021/11/18 04:34:59;;;;;;;24.92;22.10;;;6.20;99.90;;;;;;5038609;28;20422;-70
2021/11/18 04:37:26;;;;;;;57.13;43.10;;;6.20;99.90;;;;;;5057342;28;20382;-70
2021/11/18 04:39:52;;;;;;;22.30;18.13;;;6.20;99.90;;;;;;5035963;28;20365;-71
2021/11/18 04:42:20;;;;;;;53.03;44.47;;;6.10;99.90;;;;;;5057654;28;20056;-71
2021/11/18 04:45:16;;;;;;;25.45;22.40;;;6.10;99.90;;;;;;5036811;28;20049;-71
2021/11/18 04:47:44;;;;;;;27.35;18.77;;;6.10;99.90;;;;;;5036641;28;20474;-71
2021/11/18 04:50:12;;;;;;;46.55;41.25;;;6.00;99.90;;;;;;5020603;28;20233;-71
2021/11/18 04:52:38;;;;;;;28.55;21.67;;;6.00;99.90;;;;;;5038616;28;20037;-71
2021/11/18 04:55:07;;;;;;;21.52;16.92;;;5.90;99.90;;;;;;5060976;28;20033;-72
2021/11/18 04:57:34;;;;;;;34.50;30.38;;;5.90;99.90;;;;;;5035771;28;20048;-71
2021/11/18 05:00:06;;;;;;;38.28;28.17;;;5.80;99.90;;;;;;5051943;28;20044;-71
2021/11/18 05:02:36;;;;;;;35.25;23.70;;;5.80;99.90;;;;;;5034939;28;20041;-73
2021/11/18 05:05:03;;;;;;;24.30;19.35;;;5.70;99.90;;;;;;5054440;28;20048;-71
2021/11/18 05:07:30;;;;;;;47.08;39.72;;;5.70;99.90;;;;;;5035513;28;20063;-72
2021/11/18 05:09:59;;;;;;;45.67;40.38;;;5.70;99.90;;;;;;5051741;28;20051;-72
2021/11/18 05:12:26;;;;;;;29.90;21.02;;;5.70;99.90;;;;;;5034808;28;20470;-72
2021/11/18 05:14:52;;;;;;;23.58;18.60;;;5.70;99.90;;;;;;5052813;28;20037;-72
2021/11/18 05:17:18;;;;;;;27.83;21.60;;;5.70;99.90;;;;;;5034927;28;20375;-72
2021/11/18 05:19:44;;;;;;;100.22;78.53;;;5.60;99.90;;;;;;5034811;28;20389;-71
2021/11/18 05:22:11;;;;;;;27.98;24.98;;;5.50;99.90;;;;;;5052147;28;20291;-71
2021/11/18 05:24:38;;;;;;;25.20;22.48;;;5.50;99.90;;;;;;5034646;28;20063;-71
2021/11/18 05:27:05;;;;;;;19.63;17.88;;;5.50;99.90;;;;;;5034708;28;20041;-72
2021/11/18 05:29:31;;;;;;;27.38;24.58;;;5.40;99.90;;;;;;5073557;28;20055;-71
2021/11/18 05:31:59;;;;;;;25.67;20.77;;;5.30;99.90;;;;;;5071137;28;20070;-71
2021/11/18 05:34:48;;;;;;;77.20;58.80;;;5.30;99.90;;;;;;5074107;28;20040;-71
2021/11/18 05:37:16;;;;;;;32.53;20.80;;;5.30;99.90;;;;;;5086483;28;20055;-71
2021/11/18 05:39:43;;;;;;;23.80;21.20;;;5.30;99.90;;;;;;5073613;28;20040;-71
2021/11/18 05:42:12;;;;;;;23.13;19.67;;;5.20;99.90;;;;;;5075196;28;20051;-71
2021/11/18 05:44:39;;;;;;;23.38;21.02;;;5.20;99.90;;;;;;5084625;28;20473;-71
2021/11/18 05:47:05;;;;;;;26.17;20.00;;;5.10;99.90;;;;;;5070033;28;20047;-71
2021/11/18 05:49:32;;;;;;;20.77;18.75;;;5.00;99.90;;;;;;5070670;28;20048;-71
2021/11/18 05:52:03;;;;;;;21.92;19.75;;;5.00;99.90;;;;;;5079989;28;20032;-71
2021/11/18 05:54:29;;;;;;;26.73;18.05;;;5.00;99.90;;;;;;5070740;28;20044;-71
2021/11/18 05:56:57;;;;;;;28.85;18.42;;;5.00;99.90;;;;;;5071009;28;20036;-71
2021/11/18 05:59:23;;;;;;;24.77;18.38;;;4.90;99.90;;;;;;5071102;28;20032;-71
2021/11/18 06:01:53;;;;;;;17.05;15.20;;;4.80;99.90;;;;;;5081051;28;20407;-72
2021/11/18 06:04:20;;;;;;;21.92;18.55;;;4.80;99.90;;;;;;5080364;28;20037;-71
2021/11/18 06:06:53;;;;;;;20.35;18.35;;;4.80;99.90;;;;;;5075726;28;20044;-72
2021/11/18 06:09:20;;;;;;;19.63;17.73;;;4.90;99.90;;;;;;5086324;28;20040;-71
2021/11/18 06:11:47;;;;;;;27.08;24.23;;;4.80;99.90;;;;;;5070294;28;20040;-71
2021/11/18 06:14:17;;;;;;;20.20;18.30;;;4.80;99.90;;;;;;5072166;28;20024;-71
2021/11/18 06:16:46;;;;;;;22.55;20.15;;;4.80;99.90;;;;;;5080630;28;20770;-75
2021/11/18 06:19:12;;;;;;;24.08;21.52;;;4.80;99.90;;;;;;5086147;28;20531;-71
2021/11/18 06:21:44;;;;;;;24.48;21.98;;;4.80;99.90;;;;;;5077791;28;20504;-71
2021/11/18 06:24:11;;;;;;;21.48;19.55;;;4.70;99.90;;;;;;5088968;28;20040;-71
2021/11/18 06:26:44;;;;;;;23.15;20.50;;;4.70;99.90;;;;;;5078353;28;20059;-71
2021/11/18 06:29:20;;;;;;;23.80;21.13;;;4.60;99.90;;;;;;5078024;28;20055;-71
2021/11/18 06:31:49;;;;;;;22.50;20.30;;;4.60;99.90;;;;;;5078138;28;20045;-71
2021/11/18 06:34:17;;;;;;;24.42;21.45;;;4.60;99.90;;;;;;5083780;28;20040;-71
2021/11/18 06:36:44;;;;;;;23.58;19.15;;;4.60;99.90;;;;;;5072577;28;20041;-71
2021/11/18 06:39:13;;;;;;;27.50;24.63;;;4.60;99.90;;;;;;5080766;28;20066;-71
2021/11/18 06:41:41;;;;;;;31.65;28.65;;;4.60;99.90;;;;;;5084467;28;20044;-71
2021/11/18 06:44:08;;;;;;;23.75;20.05;;;4.60;99.90;;;;;;5070610;28;20036;-71
2021/11/18 06:46:35;;;;;;;20.85;18.75;;;4.50;99.90;;;;;;5086532;28;20048;-71
2021/11/18 06:49:03;;;;;;;20.45;18.70;;;4.60;99.90;;;;;;5073142;28;20048;-71
2021/11/18 06:51:30;;;;;;;28.70;19.02;;;4.60;99.90;;;;;;5081697;28;20480;-71
2021/11/18 06:53:58;;;;;;;23.20;21.00;;;4.50;99.90;;;;;;5090243;28;20036;-71
2021/11/18 06:56:29;;;;;;;23.40;21.08;;;4.50;99.90;;;;;;5087128;28;20044;-70
2021/11/18 06:58:57;;;;;;;21.65;19.08;;;4.50;99.90;;;;;;5085329;28;20040;-71
2021/11/18 07:01:29;;;;;;;21.50;19.45;;;4.50;99.90;;;;;;5068894;28;20127;-73
2021/11/18 07:03:55;;;;;;;21.88;19.55;;;4.50;99.90;;;;;;5077114;28;20063;-73
2021/11/18 07:06:24;;;;;;;22.75;20.65;;;4.60;99.90;;;;;;5091303;28;20503;-72
2021/11/18 07:08:51;;;;;;;23.25;21.05;;;4.60;99.90;;;;;;5092749;28;20044;-73
2021/11/18 07:11:19;;;;;;;25.83;22.20;;;4.60;99.90;;;;;;5075396;28;20040;-73
2021/11/18 07:13:47;;;;;;;26.15;23.45;;;4.60;99.90;;;;;;5074719;28;20497;-72
2021/11/18 07:16:17;;;;;;;24.50;21.98;;;4.60;99.90;;;;;;5077374;28;20032;-72
2021/11/18 07:18:45;;;;;;;32.25;29.38;;;4.70;99.90;;;;;;5080195;28;20045;-72
2021/11/18 07:21:13;;;;;;;24.50;21.98;;;4.70;99.90;;;;;;5079377;28;20039;-76
2021/11/18 07:23:40;;;;;;;27.52;22.27;;;4.70;99.90;;;;;;5090545;28;20040;-75
2021/11/18 07:26:08;;;;;;;23.80;21.63;;;4.80;99.90;;;;;;5073518;28;20492;-79
2021/11/18 07:28:36;;;;;;;23.48;21.05;;;4.80;99.90;;;;;;5073644;28;20048;-76
2021/11/18 07:31:06;;;;;;;25.05;22.50;;;4.80;99.90;;;;;;5085548;28;20051;-72
2021/11/18 07:33:41;;;;;;;23.08;20.67;;;4.80;99.90;;;;;;5092511;28;20432;-72
2021/11/18 07:36:08;;;;;;;24.35;21.88;;;4.90;99.90;;;;;;5078393;28;20045;-73
2021/11/18 07:38:35;;;;;;;28.27;25.70;;;4.90;99.90;;;;;;5093837;28;20040;-74
2021/11/18 07:41:05;;;;;;;28.20;22.85;;;4.90;99.90;;;;;;5085866;28;20043;-73
2021/11/18 07:43:36;;;;;;;43.63;39.42;;;5.00;99.90;;;;;;5081190;28;20036;-73
2021/11/18 07:46:37;;;;;;;30.98;23.70;;;5.00;99.90;;;;;;5078473;28;20040;-73
2021/11/18 07:49:12;;;;;;;24.23;21.65;;;5.10;99.90;;;;;;5074780;28;20044;-73
2021/11/18 07:51:40;;;;;;;26.13;23.38;;;5.20;99.90;;;;;;5074408;28;20036;-72
2021/11/18 07:54:13;;;;;;;23.52;21.05;;;5.30;99.90;;;;;;5088364;28;20370;-73
2021/11/18 07:56:40;;;;;;;21.73;19.70;;;5.30;99.90;;;;;;5079629;28;20504;-73
2021/11/18 07:59:08;;;;;;;32.53;22.92;;;5.40;99.90;;;;;;5075632;28;20032;-73
2021/11/18 08:01:37;;;;;;;25.50;22.77;;;5.50;99.90;;;;;;5074848;28;20484;-74
2021/11/18 08:04:04;;;;;;;31.27;23.90;;;5.60;99.90;;;;;;5073047;28;20037;-73
2021/11/18 08:06:44;;;;;;;23.08;20.20;;;5.70;99.90;;;;;;5084299;28;20056;-73
2021/11/18 08:09:13;;;;;;;24.00;21.42;;;5.80;99.90;;;;;;5079449;28;20051;-73
2021/11/18 08:11:51;;;;;;;41.50;25.75;;;5.90;99.90;;;;;;5080130;28;20063;-72
2021/11/18 08:14:19;;;;;;;22.60;20.30;;;6.00;99.90;;;;;;5073039;28;20038;-74
2021/11/18 08:16:48;;;;;;;22.90;20.50;;;6.10;99.90;;;;;;5089403;28;20040;-71
2021/11/18 08:19:15;;;;;;;22.70;20.52;;;6.10;99.90;;;;;;5073847;28;20040;-72
2021/11/18 08:21:44;;;;;;;24.25;19.40;;;6.10;99.90;;;;;;5088003;28;20032;-72
2021/11/18 08:24:15;;;;;;;24.02;18.13;;;6.20;99.90;;;;;;5090013;28;20039;-72
2021/11/18 08:26:43;;;;;;;25.90;16.75;;;6.20;99.90;;;;;;5073963;28;20473;-72
2021/11/18 08:29:17;;;;;;;24.25;14.02;;;6.30;99.90;;;;;;5062148;28;20040;-72
2021/11/18 08:31:47;;;;;;;24.95;17.90;;;6.30;99.90;;;;;;5036311;28;20056;-72
2021/11/18 08:34:32;;;;;;;16.23;14.60;;;6.40;99.90;;;;;;5053929;28;20112;-72
2021/11/18 08:37:07;;;;;;;18.85;14.73;;;6.30;99.90;;;;;;5035641;28;20045;-72
2021/11/18 08:39:36;;;;;;;18.55;15.75;;;6.40;99.90;;;;;;5035621;28;20048;-72
2021/11/18 08:42:07;;;;;;;16.55;14.70;;;6.60;99.90;;;;;;5042322;28;20425;-72
2021/11/18 08:44:35;;;;;;;;;;;6.60;99.90;;;;;;5046520;28;20045;-72
2021/11/18 08:47:05;;;;;;;20.67;15.77;;;6.70;99.90;;;;;;5049042;28;19924;-72
2021/11/18 08:49:33;;;;;;;23.08;16.55;;;6.80;99.90;;;;;;5053511;28;20033;-72
2021/11/18 08:52:08;;;;;;;35.08;24.88;;;6.80;99.90;;;;;;5035518;28;20048;-72
2021/11/18 08:54:41;;;;;;;81.72;60.50;;;6.70;99.90;;;;;;5035715;28;20045;-72
2021/11/18 08:57:08;;;;;;;34.17;25.30;;;6.80;99.90;;;;;;5053379;28;20051;-72
2021/11/18 08:59:54;;;;;;;51.75;35.15;;;6.80;99.90;;;;;;5052566;28;20037;-72
2021/11/18 09:02:27;;;;;;;17.27;15.48;;;6.80;99.90;;;;;;5048096;28;20044;-72
2021/11/18 09:04:55;;;;;;;49.45;39.45;;;6.90;99.90;;;;;;5034591;28;20048;-73
2021/11/18 09:07:22;;;;;;;27.40;18.13;;;6.80;99.90;;;;;;5037057;28;20044;-72
2021/11/18 09:09:49;;;;;;;26.23;18.23;;;6.80;99.90;;;;;;5053039;28;20036;-72
2021/11/18 09:12:15;;;;;;;69.78;58.60;;;6.90;99.90;;;;;;5048147;28;20123;-72
2021/11/18 09:14:44;;;;;;;23.33;19.90;;;6.90;99.90;;;;;;5035018;28;20048;-72
2021/11/18 09:17:13;;;;;;;15.88;14.02;;;7.00;99.90;;;;;;5034577;28;20052;-72
2021/11/18 09:19:52;;;;;;;19.33;14.52;;;7.00;99.90;;;;;;5041059;28;20041;-72
2021/11/18 09:22:19;;;;;;;17.08;14.65;;;7.00;99.90;;;;;;5040233;28;20041;-72
2021/11/18 09:24:56;;;;;;;17.33;14.23;;;7.10;99.90;;;;;;5035971;28;20037;-72
2021/11/18 09:27:28;;;;;;;16.45;14.65;;;7.20;99.90;;;;;;5051420;28;20060;-72
2021/11/18 09:29:56;;;;;;;15.82;13.95;;;7.30;99.90;;;;;;5065059;28;20049;-72
2021/11/18 09:32:33;;;;;;;16.65;15.10;;;7.30;99.90;;;;;;5071124;28;20051;-72
2021/11/18 09:35:16;;;;;;;17.73;13.77;;;7.50;99.90;;;;;;5070903;28;20041;-76
2021/11/18 09:37:44;;;;;;;17.60;15.13;;;7.50;99.90;;;;;;5071320;28;20147;-72
2021/11/18 09:40:16;;;;;;;15.35;13.85;;;7.70;99.90;;;;;;5072014;28;20043;-72
2021/11/18 09:43:10;;;;;;;18.67;14.27;;;7.90;99.90;;;;;;5081820;28;20037;-72
2021/11/18 09:45:41;;;;;;;;;;;8.10;99.90;;;;;;5071496;28;20036;-72
2021/11/18 09:48:29;;;;;;;13.20;12.02;;;8.20;99.90;;;;;;5070062;28;20384;-73
2021/11/18 09:51:19;;;;;;;17.23;14.60;;;8.40;99.90;;;;;;5077773;28;20401;-74
2021/11/18 09:54:08;;;;;;;17.55;14.68;;;8.40;99.90;;;;;;5070953;28;20405;-72
2021/11/18 09:57:09;;;;;;;15.10;13.60;;;8.40;99.90;;;;;;5078103;28;20044;-73
2021/11/18 10:00:00;;;;;;;16.15;14.23;;;8.30;99.90;;;;;;5020874;28;20063;-72
2021/11/18 10:02:49;;;;;;;14.23;12.63;;;8.20;99.90;;;;;;5091864;28;20040;-72
2021/11/18 10:05:17;;;;;;;18.08;14.38;;;8.30;99.90;;;;;;5090157;28;20040;-72
2021/11/18 10:07:54;;;;;;;17.08;14.00;;;8.40;99.90;;;;;;5080690;28;20398;-72
2021/11/18 10:10:54;;;;;;;20.23;15.47;;;8.50;99.90;;;;;;5084348;28;20067;-72
2021/11/18 10:13:40;;;;;;;22.52;14.55;;;8.50;99.90;;;;;;5070549;28;20290;-72
2021/11/18 10:16:21;;;;;;;19.65;15.55;;;8.40;99.90;;;;;;5070354;28;20389;-72
2021/11/18 10:18:50;;;;;;;;;;;8.30;99.90;;;;;;5071077;28;20060;-72
2021/11/18 10:21:21;;;;;;;32.22;25.15;;;8.30;99.90;;;;;;5083211;28;19915;-72
2021/11/18 10:23:51;;;;;;;52.00;45.90;;;8.20;99.90;;;;;;5079687;28;20036;-72
2021/11/18 10:26:24;;;;;;;23.65;21.23;;;8.30;99.90;;;;;;5071441;28;20366;-72
2021/11/18 10:29:00;;;;;;;31.55;24.25;;;8.50;99.90;;;;;;5063692;28;20048;-72
2021/11/18 10:32:15;;;;;;;29.33;19.15;;;8.70;99.90;;;;;;5053005;28;20032;-72
2021/11/18 10:34:52;;;;;;;27.02;16.95;;;8.90;99.90;;;;;;5056232;28;20489;-72
2021/11/18 10:37:23;;;;;;;17.70;15.43;;;9.10;99.90;;;;;;5055983;28;20381;-72
2021/11/18 10:39:53;;;;;;;16.60;14.75;;;9.10;99.60;;;;;;5037880;28;20052;-72
2021/11/18 10:42:19;;;;;;;18.33;16.45;;;9.00;98.80;;;;;;5067111;28;20039;-72
2021/11/18 10:45:13;;;;;;;22.80;19.52;;;9.10;97.80;;;;;;5056465;28;20029;-73
2021/11/18 10:47:42;;;;;;;24.45;17.20;;;9.20;97.50;;;;;;5055635;28;20040;-72
2021/11/18 10:50:37;;;;;;;20.98;18.75;;;9.20;97.90;;;;;;5056647;28;20029;-73
2021/11/18 10:53:06;;;;;;;22.20;18.23;;;9.30;97.20;;;;;;5063618;28;20032;-73
2021/11/18 10:55:38;;;;;;;18.98;15.30;;;9.50;96.30;;;;;;5068017;28;20032;-77
2021/11/18 10:58:14;;;;;;;25.45;22.70;;;9.60;95.40;;;;;;5056718;28;20029;-78
2021/11/18 11:00:45;;;;;;;24.48;20.25;;;9.70;94.70;;;;;;5055443;28;20033;-72
2021/11/18 11:03:35;;;;;;;28.77;23.92;;;9.70;96.20;;;;;;5055679;28;20033;-73
2021/11/18 11:06:07;;;;;;;28.00;22.52;;;9.50;96.00;;;;;;5063207;28;20086;-72
2021/11/18 11:08:33;;;;;;;25.80;22.85;;;9.60;96.00;;;;;;5058915;28;20037;-72
2021/11/18 11:11:24;;;;;;;31.27;21.83;;;9.50;95.60;;;;;;5055023;28;20044;-73
2021/11/18 11:14:02;;;;;;;24.65;22.10;;;9.30;95.70;;;;;;5054416;28;20052;-72
2021/11/18 11:16:37;;;;;;;22.80;19.75;;;9.30;96.30;;;;;;5064975;28;20029;-72
2021/11/18 11:19:15;;;;;;;27.50;22.30;;;9.20;95.50;;;;;;5056688;28;20031;-72
2021/11/18 11:21:44;;;;;;;23.90;21.33;;;9.00;96.40;;;;;;5055833;28;20044;-72
2021/11/18 11:24:59;;;;;;;24.98;19.27;;;9.10;96.90;;;;;;5066237;28;20044;-73
2021/11/18 11:27:49;;;;;;;21.85;19.50;;;9.10;96.40;;;;;;5059484;28;20033;-72
2021/11/18 11:30:19;;;;;;;22.88;19.33;;;9.00;95.50;;;;;;5054640;28;20060;-72
2021/11/18 11:33:09;;;;;;;23.02;19.75;;;8.90;96.10;;;;;;5053988;28;20375;-73
2021/11/18 11:35:48;;;;;;;24.55;18.88;;;8.90;95.90;;;;;;5044053;28;20049;-72
2021/11/18 11:38:28;;;;;;;22.52;19.55;;;9.00;95.70;;;;;;5058827;28;20033;-73
2021/11/18 11:41:06;;;;;;;27.83;21.75;;;9.00;95.70;;;;;;5054510;28;20040;-72
2021/11/18 11:43:57;;;;;;;23.58;21.02;;;9.10;95.40;;;;;;5053369;28;20033;-72
2021/11/18 11:46:26;;;;;;;30.33;22.02;;;9.10;96.00;;;;;;5036382;28;20047;-72
2021/11/18 11:49:27;;;;;;;23.80;19.08;;;9.10;95.70;;;;;;5055381;28;20037;-73
2021/11/18 11:52:13;;;;;;;20.42;18.23;;;8.80;96.60;;;;;;5036991;28;20041;-72
2021/11/18 11:55:22;;;;;;;27.63;21.85;;;8.70;97.30;;;;;;5071508;28;20033;-72
2021/11/18 11:57:57;;;;;;;25.40;21.10;;;8.60;97.60;;;;;;5036262;28;20029;-74
2021/11/18 12:00:50;;;;;;;22.65;19.55;;;8.50;97.50;;;;;;5035983;28;20041;-72
2021/11/18 12:03:43;;;;;;;26.02;22.25;;;8.50;97.50;;;;;;5054248;28;20032;-71
2021/11/18 12:06:26;;;;;;;28.60;23.75;;;8.50;97.70;;;;;;5053226;28;20501;-71
2021/11/18 12:09:01;;;;;;;32.15;20.45;;;8.50;97.50;;;;;;5053793;28;20033;-73
2021/11/18 12:11:43;;;;;;;22.17;19.80;;;8.60;97.80;;;;;;5042266;28;20090;-80
2021/11/18 12:14:32;;;;;;;26.75;21.25;;;8.60;97.20;;;;;;5068040;28;20036;-75
2021/11/18 12:17:18;;;;;;;;;;;8.70;97.30;;;;;;5061173;28;20052;-79
2021/11/18 12:19:47;;;;;;;24.00;20.95;;;8.80;97.30;;;;;;5054212;28;19909;-74
2021/11/18 12:22:29;;;;;;;33.08;28.42;;;8.90;96.40;;;;;;5053494;28;20025;-75
2021/11/18 12:25:15;;;;;;;26.27;23.35;;;8.90;96.30;;;;;;5053793;28;20033;-74
2021/11/18 12:28:08;;;;;;;24.92;18.45;;;8.90;96.00;;;;;;5053253;28;20048;-74
2021/11/18 12:30:43;;;;;;;30.85;21.65;;;8.90;96.10;;;;;;5053428;28;20044;-74
2021/11/18 12:33:31;;;;;;;24.92;19.33;;;9.10;95.50;;;;;;5052915;28;20466;-74
2021/11/18 12:36:24;;;;;;;22.13;15.88;;;9.10;94.90;;;;;;5057219;28;20056;-74
2021/11/18 12:39:35;;;;;;;22.30;17.88;;;9.10;94.90;;;;;;5063542;28;20040;-74
2021/11/18 12:42:59;;;;;;;19.35;16.73;;;9.10;94.80;;;;;;5058533;28;20031;-78
2021/11/18 12:45:50;;;;;;;21.60;17.33;;;9.00;94.80;;;;;;5021304;28;20033;-76
2021/11/18 12:48:22;;;;;;;29.33;26.35;;;9.00;94.50;;;;;;5052710;28;20029;-75
2021/11/18 12:51:10;;;;;;;19.95;18.00;;;9.10;94.30;;;;;;5055209;28;20037;-75
2021/11/18 12:53:41;;;;;;;40.92;32.42;;;9.20;95.50;;;;;;5057080;28;20470;-75
2021/11/18 12:56:13;;;;;;;21.98;17.00;;;9.40;94.50;;;;;;5052043;28;20037;-77
2021/11/18 12:59:08;;;;;;;18.15;14.45;;;9.50;93.90;;;;;;5035867;28;20033;-76
2021/11/18 13:01:58;;;;;;;19.83;14.32;;;9.60;93.00;;;;;;5050457;28;20040;-76
2021/11/18 13:04:53;;;;;;;25.77;19.20;;;9.70;92.10;;;;;;5059976;28;20037;-76
2021/11/18 13:07:45;;;;;;;20.00;15.93;;;9.90;91.00;;;;;;5033740;28;20478;-77
2021/11/18 13:10:33;;;;;;;21.70;17.08;;;9.90;91.50;;;;;;5061631;28;20032;-77